Allen, South Dakota
Current Conditions -  °F | °C
As of 10:52 PM on Thursday 30 Oct 2014 (Local Time) from KIEN Reporting Station
Clear Clear  
Wind Chill: 17°   Ceiling: Unl
Heat Index: 25°   Visibility: 8mi
Dew Point: 23°   Wind: 7mph
Humidity: 92%   Direction: 60°ENE
Pressure: 30.46"   Gusts: NA
Location:  43.28°N, 101.93°W
Report Text: KIEN 310452Z AUTO 06006KT 8SM CLR M04/M05 A3046 RMK AO2 SLP333 T10391050
Loading
Personal Weather Stations






























Interactive Weather Map New forecast layout! Learn more

10-Day Weather Forecast

Advertisements
Track Severe Weather on mobile